Time;durP1;ratioP1;P1;durP2;ratioP2;P2;SDS_P1;SDS_P2;PMS_P1;PMS_P2;Temp;Humidity;BMP_temperature;BMP_pressure;BME280_temperature;BME280_humidity;BME280_pressure;Samples;Min_cycle;Max_cycle;Signal;HPM_P1;HPM_P2
2021/01/08 00:01:53;;;;;;;19.00;14.60;;;3.50;98.00;;;;;;5093484;28;20481;-72
2021/01/08 00:04:21;;;;;;;23.70;15.73;;;3.40;98.10;;;;;;5093304;28;20466;-72
2021/01/08 00:06:53;;;;;;;22.03;15.90;;;3.40;98.20;;;;;;5093296;28;20852;-72
2021/01/08 00:09:20;;;;;;;21.30;15.43;;;3.30;98.20;;;;;;5093326;28;20466;-72
2021/01/08 00:11:46;;;;;;;20.47;15.67;;;3.40;98.40;;;;;;5093077;28;20442;-71
2021/01/08 00:14:12;;;;;;;22.77;15.97;;;3.30;98.30;;;;;;5092962;28;20966;-72
2021/01/08 00:16:38;;;;;;;23.10;16.40;;;3.30;98.30;;;;;;5093279;28;20453;-71
2021/01/08 00:19:04;;;;;;;24.40;17.03;;;3.30;98.50;;;;;;5093151;28;20470;-71
2021/01/08 00:21:37;;;;;;;24.10;16.60;;;3.40;98.30;;;;;;5093262;28;20436;-71
2021/01/08 00:24:06;;;;;;;22.03;17.03;;;3.30;98.20;;;;;;5093187;28;20446;-71
2021/01/08 00:26:32;;;;;;;22.67;15.77;;;3.30;98.30;;;;;;5092779;28;21055;-71
2021/01/08 00:28:58;;;;;;;22.70;16.47;;;3.30;98.20;;;;;;5092896;28;20438;-71
2021/01/08 00:31:25;;;;;;;23.17;15.27;;;3.30;98.10;;;;;;5093129;28;20452;-71
2021/01/08 00:33:51;;;;;;;19.87;14.80;;;3.30;98.20;;;;;;5092799;28;20947;-71
2021/01/08 00:36:17;;;;;;;23.53;16.47;;;3.30;98.10;;;;;;5092879;28;20442;-71
2021/01/08 00:38:43;;;;;;;23.40;17.30;;;3.30;98.10;;;;;;5093082;28;20451;-71
2021/01/08 00:41:10;;;;;;;23.70;16.60;;;3.20;98.10;;;;;;5092718;28;20835;-72
2021/01/08 00:43:36;;;;;;;24.33;16.50;;;3.20;98.30;;;;;;5092735;28;20441;-72
2021/01/08 00:46:03;;;;;;;24.47;17.10;;;3.20;98.70;;;;;;5095993;28;20476;-71
2021/01/08 00:48:29;;;;;;;25.60;18.33;;;3.20;98.20;;;;;;5096733;28;20501;-71
2021/01/08 00:51:01;;;;;;;24.07;16.93;;;3.20;98.20;;;;;;5096614;28;20832;-71
2021/01/08 00:53:27;;;;;;;24.33;15.90;;;3.10;98.30;;;;;;5096639;28;20474;-71
2021/01/08 00:55:54;;;;;;;22.00;15.40;;;3.20;98.40;;;;;;5096587;28;20441;-71
2021/01/08 00:58:22;;;;;;;23.80;16.93;;;3.10;98.20;;;;;;5096538;28;20447;-71
2021/01/08 01:00:50;;;;;;;23.27;16.10;;;3.00;98.30;;;;;;5096394;28;20465;-71
2021/01/08 01:03:16;;;;;;;24.10;15.63;;;3.10;98.40;;;;;;5096342;28;20571;-71
2021/01/08 01:05:43;;;;;;;21.23;14.90;;;3.10;98.30;;;;;;5096332;28;20451;-71
2021/01/08 01:08:09;;;;;;;19.87;14.60;;;3.10;98.30;;;;;;5095978;28;20441;-71
2021/01/08 01:10:35;;;;;;;21.20;15.53;;;3.00;98.30;;;;;;5096193;28;20468;-71
2021/01/08 01:13:01;;;;;;;21.40;16.00;;;3.10;98.40;;;;;;5096262;28;20811;-71
2021/01/08 01:15:28;;;;;;;23.20;17.00;;;3.00;98.30;;;;;;5095914;28;20965;-71
2021/01/08 01:17:55;;;;;;;23.33;16.77;;;3.00;98.40;;;;;;5096180;28;20432;-72
2021/01/08 01:20:21;;;;;;;20.50;14.73;;;3.00;98.40;;;;;;5096012;28;20472;-72
2021/01/08 01:22:47;;;;;;;21.47;15.20;;;3.00;98.40;;;;;;5095988;28;20460;-72
2021/01/08 01:25:13;;;;;;;22.20;16.00;;;3.00;98.40;;;;;;5095698;28;20451;-72
2021/01/08 01:27:40;;;;;;;21.30;14.90;;;3.00;98.50;;;;;;5095616;28;20998;-72
2021/01/08 01:30:08;;;;;;;21.37;16.20;;;3.00;98.50;;;;;;5096111;28;20477;-72
2021/01/08 01:32:35;;;;;;;19.67;15.70;;;3.00;98.40;;;;;;5095847;28;20450;-71
2021/01/08 01:35:01;;;;;;;21.10;15.30;;;3.00;98.30;;;;;;5096695;28;20586;-71
2021/01/08 01:37:27;;;;;;;20.77;15.30;;;3.00;98.40;;;;;;5095780;28;20846;-72
2021/01/08 01:39:54;;;;;;;21.80;15.60;;;3.00;98.40;;;;;;5095808;28;20527;-72
2021/01/08 01:42:20;;;;;;;20.90;15.77;;;3.00;98.40;;;;;;5095412;28;20944;-72
2021/01/08 01:44:46;;;;;;;20.63;15.10;;;3.00;98.40;;;;;;5095338;28;20442;-72
2021/01/08 01:47:13;;;;;;;22.53;16.20;;;3.00;98.40;;;;;;5095520;28;20478;-72
2021/01/08 01:49:40;;;;;;;19.80;14.47;;;3.10;98.50;;;;;;5095464;28;20478;-72
2021/01/08 01:52:06;;;;;;;22.20;14.70;;;3.10;98.40;;;;;;5095568;28;20480;-72
2021/01/08 01:54:32;;;;;;;19.03;14.53;;;3.10;98.40;;;;;;5095413;28;20524;-72
2021/01/08 01:56:59;;;;;;;20.60;15.07;;;3.10;98.50;;;;;;5094548;28;20875;-72
2021/01/08 01:59:25;;;;;;;17.83;14.10;;;3.10;98.50;;;;;;5095281;28;20482;-72
2021/01/08 02:01:51;;;;;;;20.80;15.03;;;3.10;98.60;;;;;;5095305;28;20454;-72
2021/01/08 02:04:19;;;;;;;17.43;14.10;;;3.10;98.50;;;;;;5094901;28;20465;-72
2021/01/08 02:06:46;;;;;;;19.37;14.53;;;3.10;98.50;;;;;;5095096;28;20535;-72
2021/01/08 02:09:14;;;;;;;19.50;13.97;;;3.20;98.60;;;;;;5095093;28;20463;-72
2021/01/08 02:11:45;;;;;;;22.40;15.80;;;3.20;98.70;;;;;;5094840;28;20467;-72
2021/01/08 02:14:16;;;;;;;21.20;15.30;;;3.10;98.70;;;;;;5095146;28;20433;-72
2021/01/08 02:16:44;;;;;;;19.80;14.57;;;3.20;98.80;;;;;;5095049;28;20434;-72
2021/01/08 02:19:16;;;;;;;17.43;14.67;;;3.20;98.80;;;;;;5094850;28;20501;-72
2021/01/08 02:21:49;;;;;;;17.70;14.30;;;3.30;98.60;;;;;;5094642;28;20426;-72
2021/01/08 02:24:20;;;;;;;17.97;13.70;;;3.20;98.60;;;;;;5094899;28;20434;-72
2021/01/08 02:26:48;;;;;;;20.30;14.57;;;3.30;98.70;;;;;;5094819;28;20462;-72
2021/01/08 02:29:15;;;;;;;20.20;15.40;;;3.20;98.60;;;;;;5094703;28;20470;-72
2021/01/08 02:31:41;;;;;;;19.70;15.67;;;3.20;98.70;;;;;;5094716;28;20449;-72
2021/01/08 02:34:08;;;;;;;21.50;15.10;;;3.30;98.80;;;;;;5095343;28;20562;-72
2021/01/08 02:36:37;;;;;;;19.20;14.47;;;3.30;98.70;;;;;;5094346;28;20809;-72
2021/01/08 02:39:04;;;;;;;17.80;13.90;;;3.30;98.70;;;;;;5094192;28;20477;-72
2021/01/08 02:41:30;;;;;;;20.63;14.50;;;3.30;98.70;;;;;;5094557;28;20808;-72
2021/01/08 02:43:59;;;;;;;21.33;15.30;;;3.30;98.60;;;;;;5094495;28;20448;-72
2021/01/08 02:46:25;;;;;;;18.73;15.33;;;3.30;98.60;;;;;;5094058;28;20902;-72
2021/01/08 02:48:51;;;;;;;17.93;13.20;;;3.30;98.50;;;;;;5094346;28;20442;-71
2021/01/08 02:51:17;;;;;;;19.53;14.63;;;3.30;98.60;;;;;;5094917;28;20447;-71
2021/01/08 02:53:44;;;;;;;18.37;13.63;;;3.30;98.40;;;;;;5094317;28;20465;-72
2021/01/08 02:56:15;;;;;;;21.40;15.03;;;3.30;98.50;;;;;;5093965;28;20441;-72
2021/01/08 02:58:43;;;;;;;20.00;14.47;;;3.30;98.50;;;;;;5094252;28;20435;-72
2021/01/08 03:01:11;;;;;;;19.13;15.10;;;3.30;98.40;;;;;;5094168;28;20805;-72
2021/01/08 03:03:38;;;;;;;18.30;13.53;;;3.30;98.40;;;;;;5093996;28;20467;-72
2021/01/08 03:06:06;;;;;;;19.13;14.57;;;3.30;98.40;;;;;;5094134;28;20518;-72
2021/01/08 03:08:32;;;;;;;18.23;13.83;;;3.30;98.30;;;;;;5093990;28;20519;-72
2021/01/08 03:11:00;;;;;;;17.50;13.80;;;3.30;98.20;;;;;;5093680;28;20461;-72
2021/01/08 03:13:30;;;;;;;18.30;13.63;;;3.40;98.20;;;;;;5093644;28;20450;-72
2021/01/08 03:15:56;;;;;;;17.37;12.00;;;3.30;98.00;;;;;;5094022;28;20442;-72
2021/01/08 03:18:24;;;;;;;16.80;12.83;;;3.30;98.00;;;;;;5093952;28;20499;-72
2021/01/08 03:20:50;;;;;;;15.93;12.90;;;3.30;97.90;;;;;;5093840;28;20474;-72
2021/01/08 03:23:16;;;;;;;15.13;11.53;;;3.30;97.80;;;;;;5093859;28;20446;-72
2021/01/08 03:25:42;;;;;;;17.33;12.97;;;3.20;97.80;;;;;;5093501;28;20944;-72
2021/01/08 03:28:08;;;;;;;16.63;12.20;;;3.20;97.90;;;;;;5093696;28;20545;-71
2021/01/08 03:30:34;;;;;;;16.07;11.17;;;3.20;97.70;;;;;;5093742;28;20531;-71
2021/01/08 03:33:01;;;;;;;15.33;11.50;;;3.20;97.80;;;;;;5093722;28;20620;-72
2021/01/08 03:35:28;;;;;;;17.47;12.10;;;3.20;97.70;;;;;;5093715;28;20441;-72
2021/01/08 03:37:54;;;;;;;17.13;12.77;;;3.20;97.60;;;;;;5093632;28;20450;-72
2021/01/08 03:40:20;;;;;;;15.10;11.13;;;3.20;98.00;;;;;;5093547;28;20474;-72
2021/01/08 03:42:46;;;;;;;15.23;11.53;;;3.20;97.80;;;;;;5093615;28;20446;-72
2021/01/08 03:45:13;;;;;;;18.20;12.90;;;3.20;97.80;;;;;;5093265;28;20449;-72
2021/01/08 03:47:39;;;;;;;15.27;11.60;;;3.20;97.70;;;;;;5093497;28;20477;-72
2021/01/08 03:50:07;;;;;;;16.00;10.80;;;3.20;97.70;;;;;;5093180;28;21090;-71
2021/01/08 03:52:34;;;;;;;16.07;11.83;;;3.20;97.80;;;;;;5093485;28;20463;-71
2021/01/08 03:55:00;;;;;;;13.07;10.07;;;3.30;97.80;;;;;;5094378;28;20430;-71
2021/01/08 03:57:26;;;;;;;12.33;9.70;;;3.20;97.60;;;;;;5093439;28;20442;-71
2021/01/08 03:59:53;;;;;;;12.80;9.23;;;3.20;97.50;;;;;;5093096;28;20983;-71
2021/01/08 04:02:19;;;;;;;13.73;10.60;;;3.30;97.40;;;;;;5093419;28;20446;-71
2021/01/08 04:04:45;;;;;;;10.80;8.53;;;3.30;97.30;;;;;;5092985;28;20511;-71
2021/01/08 04:07:12;;;;;;;12.80;8.90;;;3.30;97.10;;;;;;5092979;28;20475;-70
2021/01/08 04:09:39;;;;;;;10.97;8.30;;;3.30;97.00;;;;;;5092993;28;20974;-70
2021/01/08 04:12:06;;;;;;;11.53;8.20;;;3.20;96.90;;;;;;5092999;28;20939;-70
2021/01/08 04:14:32;;;;;;;11.50;8.27;;;3.20;97.00;;;;;;5093267;28;20456;-70
2021/01/08 04:16:58;;;;;;;12.60;8.67;;;3.20;97.10;;;;;;5093248;28;20442;-70
2021/01/08 04:19:24;;;;;;;9.80;7.60;;;3.20;97.20;;;;;;5093743;28;20978;-70
2021/01/08 04:21:50;;;;;;;8.77;6.70;;;3.10;97.10;;;;;;5097238;28;20447;-70
2021/01/08 04:24:17;;;;;;;8.67;6.10;;;3.10;97.10;;;;;;5097214;28;20445;-70
2021/01/08 04:26:44;;;;;;;8.90;6.10;;;3.10;97.10;;;;;;5097048;28;20477;-70
2021/01/08 04:29:10;;;;;;;9.23;6.97;;;3.10;97.30;;;;;;5097049;28;20821;-71
2021/01/08 04:31:36;;;;;;;7.40;5.80;;;3.10;97.30;;;;;;5097095;28;20442;-71
2021/01/08 04:34:03;;;;;;;9.40;6.80;;;3.10;97.30;;;;;;5096998;28;20454;-71
2021/01/08 04:36:29;;;;;;;8.70;5.97;;;3.20;97.30;;;;;;5097521;28;20506;-71
2021/01/08 04:38:55;;;;;;;7.37;5.80;;;3.10;97.20;;;;;;5096833;28;20451;-71
2021/01/08 04:41:22;;;;;;;8.07;6.23;;;3.10;97.20;;;;;;5096873;28;20507;-71
2021/01/08 04:43:49;;;;;;;7.60;6.17;;;3.10;97.30;;;;;;5096840;28;20449;-71
2021/01/08 04:46:20;;;;;;;9.90;7.40;;;3.10;97.30;;;;;;5096441;28;20473;-71
2021/01/08 04:48:47;;;;;;;11.73;8.20;;;3.00;97.30;;;;;;5096510;28;20910;-71
2021/01/08 04:51:15;;;;;;;11.50;8.40;;;3.10;97.40;;;;;;5096392;28;20496;-71
2021/01/08 04:53:41;;;;;;;12.80;9.30;;;3.10;97.30;;;;;;5096684;28;20450;-71
2021/01/08 04:56:10;;;;;;;12.90;10.33;;;3.10;97.20;;;;;;5096637;28;20452;-71
2021/01/08 04:58:36;;;;;;;17.33;12.10;;;3.10;97.20;;;;;;5096301;28;20450;-71
2021/01/08 05:01:04;;;;;;;20.23;12.77;;;3.10;97.20;;;;;;5096146;28;20984;-71
2021/01/08 05:03:31;;;;;;;17.70;12.03;;;3.10;97.20;;;;;;5096296;28;20456;-71
2021/01/08 05:05:58;;;;;;;20.17;14.17;;;3.10;97.20;;;;;;5096106;28;20902;-71
2021/01/08 05:08:24;;;;;;;19.60;14.00;;;3.10;97.00;;;;;;5096044;28;20975;-71
2021/01/08 05:10:51;;;;;;;22.00;14.50;;;3.10;97.10;;;;;;5096314;28;20466;-71
2021/01/08 05:13:17;;;;;;;21.67;13.13;;;3.00;97.20;;;;;;5096348;28;20420;-71
2021/01/08 05:15:51;;;;;;;19.13;12.80;;;3.00;97.20;;;;;;5096243;28;20441;-71
2021/01/08 05:18:18;;;;;;;19.47;12.73;;;3.00;97.20;;;;;;5096241;28;20421;-71
2021/01/08 05:20:44;;;;;;;17.00;11.90;;;3.00;97.20;;;;;;5096081;28;20461;-71
2021/01/08 05:23:11;;;;;;;15.73;10.30;;;3.00;97.20;;;;;;5096058;28;20448;-71
2021/01/08 05:25:39;;;;;;;15.67;10.37;;;3.00;97.20;;;;;;5095780;28;20940;-71
2021/01/08 05:28:06;;;;;;;14.47;10.00;;;3.00;97.20;;;;;;5095621;28;20475;-71
2021/01/08 05:30:32;;;;;;;14.33;9.53;;;3.00;97.30;;;;;;5095335;28;20465;-71
2021/01/08 05:33:00;;;;;;;12.70;8.27;;;3.00;97.20;;;;;;5095221;28;20446;-71
2021/01/08 05:35:30;;;;;;;12.43;8.30;;;3.00;97.40;;;;;;5095840;28;20451;-71
2021/01/08 05:37:56;;;;;;;12.00;9.00;;;3.00;97.50;;;;;;5095535;28;20432;-71
2021/01/08 05:40:26;;;;;;;17.73;9.13;;;3.00;97.40;;;;;;5095763;28;20463;-71
2021/01/08 05:42:59;;;;;;;13.73;8.30;;;3.00;97.40;;;;;;5095723;28;20443;-71
2021/01/08 05:45:26;;;;;;;9.83;7.77;;;3.00;97.40;;;;;;5095731;28;20453;-70
2021/01/08 05:47:53;;;;;;;10.33;6.93;;;3.00;97.30;;;;;;5095454;28;20536;-70
2021/01/08 05:50:21;;;;;;;10.73;7.50;;;3.00;97.20;;;;;;5095492;28;20460;-70
2021/01/08 05:52:53;;;;;;;11.67;7.93;;;3.00;97.20;;;;;;5095526;28;20448;-70
2021/01/08 05:55:20;;;;;;;14.70;8.80;;;3.00;97.30;;;;;;5095078;28;20919;-70
2021/01/08 05:57:50;;;;;;;14.40;9.23;;;2.90;97.20;;;;;;5095355;28;20442;-70
2021/01/08 06:00:17;;;;;;;18.57;11.63;;;2.90;97.30;;;;;;5095333;28;20482;-71
2021/01/08 06:02:44;;;;;;;19.07;11.47;;;3.00;97.40;;;;;;5094957;28;21016;-70
2021/01/08 06:05:12;;;;;;;21.30;13.60;;;2.90;97.30;;;;;;5094895;28;20459;-70
2021/01/08 06:07:38;;;;;;;21.30;11.77;;;2.90;97.40;;;;;;5094841;28;20990;-70
2021/01/08 06:10:07;;;;;;;18.40;10.50;;;2.90;97.30;;;;;;5094799;28;21105;-70
2021/01/08 06:12:38;;;;;;;16.93;9.83;;;2.90;97.40;;;;;;5094753;28;20932;-70
2021/01/08 06:15:08;;;;;;;12.90;8.10;;;2.90;97.30;;;;;;5095425;28;20876;-70
2021/01/08 06:17:38;;;;;;;13.80;8.13;;;2.90;97.30;;;;;;5095004;28;20445;-70
2021/01/08 06:20:06;;;;;;;9.73;6.20;;;2.90;97.30;;;;;;5094887;28;20502;-70
2021/01/08 06:22:37;;;;;;;11.90;7.13;;;2.90;97.30;;;;;;5094941;28;20448;-70
2021/01/08 06:25:06;;;;;;;10.73;7.23;;;2.90;97.30;;;;;;5094583;28;20452;-70
2021/01/08 06:27:34;;;;;;;8.53;6.07;;;2.90;97.30;;;;;;5094483;28;20994;-70
2021/01/08 06:30:02;;;;;;;10.83;6.63;;;2.90;97.30;;;;;;5094405;28;20971;-70
2021/01/08 06:32:30;;;;;;;10.30;6.40;;;2.90;97.30;;;;;;5094756;28;20447;-70
2021/01/08 06:35:03;;;;;;;10.23;6.13;;;2.90;97.30;;;;;;5094751;28;20430;-70
2021/01/08 06:37:37;;;;;;;11.87;7.90;;;2.90;97.40;;;;;;5094723;28;20757;-70
2021/01/08 06:40:05;;;;;;;10.53;7.30;;;2.90;97.30;;;;;;5094544;28;20470;-70
2021/01/08 06:42:32;;;;;;;10.17;7.03;;;2.90;97.20;;;;;;5093850;28;21151;-70
2021/01/08 06:44:59;;;;;;;10.70;7.17;;;2.90;97.30;;;;;;5094479;28;20445;-70
2021/01/08 06:47:29;;;;;;;8.57;6.33;;;2.80;97.20;;;;;;5094065;28;20469;-70
2021/01/08 06:49:58;;;;;;;8.87;6.43;;;2.90;97.30;;;;;;5094348;28;20857;-70
2021/01/08 06:52:25;;;;;;;9.07;6.67;;;2.90;97.30;;;;;;5094417;28;20465;-70
2021/01/08 06:54:54;;;;;;;9.80;6.97;;;3.00;97.20;;;;;;5094294;28;20469;-70
2021/01/08 06:57:21;;;;;;;9.83;7.10;;;2.90;97.10;;;;;;5094354;28;20465;-70
2021/01/08 06:59:54;;;;;;;8.50;6.60;;;2.90;97.10;;;;;;5094237;28;20531;-70
2021/01/08 07:02:22;;;;;;;9.43;7.17;;;2.90;97.00;;;;;;5094221;28;20438;-70
2021/01/08 07:04:49;;;;;;;11.20;8.30;;;3.00;97.00;;;;;;5093860;28;20463;-70
2021/01/08 07:07:22;;;;;;;11.97;8.37;;;2.90;96.90;;;;;;5094078;28;20479;-70
2021/01/08 07:09:50;;;;;;;11.33;8.03;;;2.90;96.90;;;;;;5093751;28;20829;-70
2021/01/08 07:12:16;;;;;;;14.00;9.93;;;2.90;97.00;;;;;;5094041;28;20462;-70
2021/01/08 07:14:42;;;;;;;12.30;9.23;;;2.90;97.10;;;;;;5094067;28;20469;-70
2021/01/08 07:17:12;;;;;;;12.00;8.53;;;2.90;97.10;;;;;;5094104;28;20419;-70
2021/01/08 07:19:41;;;;;;;12.90;9.10;;;2.90;97.20;;;;;;5093896;28;20469;-70
2021/01/08 07:22:08;;;;;;;15.20;9.80;;;2.90;97.20;;;;;;5094803;28;20525;-70
2021/01/08 07:24:36;;;;;;;12.50;9.63;;;2.80;97.20;;;;;;5093635;28;20456;-70
2021/01/08 07:27:19;;;;;;;15.07;10.07;;;2.80;97.30;;;;;;5093487;28;20470;-70
2021/01/08 07:29:55;;;;;;;14.50;10.30;;;2.80;97.30;;;;;;5093775;28;20472;-70
2021/01/08 07:32:34;;;;;;;15.30;10.90;;;2.90;97.40;;;;;;5093860;28;20457;-70
2021/01/08 07:35:17;;;;;;;16.10;10.87;;;2.80;97.40;;;;;;5093598;28;20934;-70
2021/01/08 07:38:03;;;;;;;13.27;10.27;;;2.80;97.50;;;;;;5093804;28;20442;-70
2021/01/08 07:40:31;;;;;;;14.30;9.60;;;2.80;97.40;;;;;;5093514;28;21036;-70
2021/01/08 07:42:59;;;;;;;13.73;9.50;;;2.80;97.50;;;;;;5093775;28;20480;-70
2021/01/08 07:46:01;;;;;;;16.57;10.03;;;2.90;97.60;;;;;;5093760;28;20541;-70
2021/01/08 07:48:31;;;;;;;16.53;10.87;;;2.90;97.50;;;;;;5093260;28;21019;-70
2021/01/08 07:50:59;;;;;;;13.67;10.13;;;2.90;97.40;;;;;;5093589;28;20552;-70
2021/01/08 07:53:44;;;;;;;12.20;8.60;;;2.90;97.40;;;;;;5093307;28;20843;-70
2021/01/08 07:56:12;;;;;;;14.50;9.40;;;2.90;97.50;;;;;;5097241;28;20445;-70
2021/01/08 07:58:38;;;;;;;14.73;9.13;;;3.00;97.50;;;;;;5097820;28;20450;-71
2021/01/08 08:01:05;;;;;;;13.03;9.03;;;2.90;97.40;;;;;;5097686;28;20494;-70
2021/01/08 08:03:33;;;;;;;15.03;10.07;;;3.00;97.40;;;;;;5097372;28;20459;-70
2021/01/08 08:06:00;;;;;;;14.83;9.17;;;3.00;97.40;;;;;;5097647;28;20455;-71
2021/01/08 08:08:27;;;;;;;14.57;9.53;;;3.00;97.40;;;;;;5097212;28;21108;-71
2021/01/08 08:10:53;;;;;;;12.37;8.80;;;3.10;97.50;;;;;;5097403;28;20478;-70
2021/01/08 08:13:27;;;;;;;15.77;10.27;;;3.10;97.50;;;;;;5097512;28;20442;-70
2021/01/08 08:15:53;;;;;;;14.33;8.90;;;3.10;97.50;;;;;;5097721;28;20474;-70
2021/01/08 08:18:19;;;;;;;11.73;8.33;;;3.10;97.30;;;;;;5097354;28;20446;-70
2021/01/08 08:20:46;;;;;;;13.63;8.43;;;3.10;97.30;;;;;;5097216;28;20473;-71
2021/01/08 08:23:16;;;;;;;11.97;8.53;;;3.10;97.30;;;;;;5096936;28;20978;-70
2021/01/08 08:25:43;;;;;;;14.97;9.53;;;3.10;97.30;;;;;;5097273;28;20446;-70
2021/01/08 08:28:09;;;;;;;17.67;9.87;;;3.20;97.40;;;;;;5097116;28;20487;-70
2021/01/08 08:30:36;;;;;;;11.63;8.60;;;3.10;97.40;;;;;;5097096;28;20471;-70
2021/01/08 08:33:04;;;;;;;14.60;9.23;;;3.20;97.40;;;;;;5097086;28;20779;-70
2021/01/08 08:35:33;;;;;;;14.87;10.90;;;3.10;97.40;;;;;;5097189;28;20490;-70
2021/01/08 08:38:01;;;;;;;14.83;11.07;;;3.20;97.50;;;;;;5097028;28;20445;-70
2021/01/08 08:40:28;;;;;;;15.13;10.40;;;3.20;97.60;;;;;;5096665;28;20972;-70
2021/01/08 08:42:56;;;;;;;16.40;10.90;;;3.20;97.60;;;;;;5096924;28;20436;-71
2021/01/08 08:45:24;;;;;;;15.47;10.07;;;3.30;97.60;;;;;;5096542;28;20482;-71
2021/01/08 08:47:52;;;;;;;16.23;10.70;;;3.20;97.50;;;;;;5096751;28;20484;-71
2021/01/08 08:50:19;;;;;;;17.50;10.23;;;3.20;97.50;;;;;;5096768;28;20828;-71
2021/01/08 08:52:46;;;;;;;16.93;10.37;;;3.30;97.70;;;;;;5096717;28;20490;-71
2021/01/08 08:55:29;;;;;;;17.90;10.90;;;3.30;97.60;;;;;;5096659;28;20450;-71
2021/01/08 08:58:04;;;;;;;16.03;10.47;;;3.40;97.50;;;;;;5096343;28;20513;-71
2021/01/08 09:00:30;;;;;;;15.50;9.70;;;3.40;97.50;;;;;;5096181;28;20847;-72
2021/01/08 09:02:57;;;;;;;16.27;10.20;;;3.50;97.50;;;;;;5096535;28;20453;-72
2021/01/08 09:05:30;;;;;;;13.63;9.03;;;3.60;97.30;;;;;;5095869;28;20458;-72
2021/01/08 09:08:03;;;;;;;15.40;10.37;;;3.60;97.30;;;;;;5096397;28;20468;-72
2021/01/08 09:10:33;;;;;;;17.10;10.53;;;3.60;97.10;;;;;;5096391;28;20501;-72
2021/01/08 09:13:07;;;;;;;18.10;11.27;;;3.60;97.10;;;;;;5097419;28;20446;-72
2021/01/08 09:15:42;;;;;;;17.27;10.03;;;3.60;97.20;;;;;;5096327;28;20430;-72
2021/01/08 09:18:17;;;;;;;17.37;10.63;;;3.60;97.40;;;;;;5096253;28;20422;-72
2021/01/08 09:20:54;;;;;;;16.73;10.77;;;3.60;97.40;;;;;;5095829;28;20469;-72
2021/01/08 09:23:21;;;;;;;17.00;10.10;;;3.60;97.40;;;;;;5096171;28;20481;-72
2021/01/08 09:25:49;;;;;;;17.50;10.80;;;3.70;97.40;;;;;;5096026;28;20454;-72
2021/01/08 09:28:17;;;;;;;17.20;9.73;;;3.70;97.30;;;;;;5095995;28;20486;-72
2021/01/08 09:30:50;;;;;;;13.87;9.37;;;3.70;97.20;;;;;;5095598;28;20830;-72
2021/01/08 09:33:17;;;;;;;17.47;10.83;;;3.70;97.20;;;;;;5096516;28;20461;-72
2021/01/08 09:35:44;;;;;;;14.33;9.73;;;3.90;97.30;;;;;;5095924;28;20447;-72
2021/01/08 09:38:14;;;;;;;14.73;10.10;;;3.90;97.10;;;;;;5096460;28;20459;-72
2021/01/08 09:40:41;;;;;;;15.60;9.67;;;4.00;97.10;;;;;;5095467;28;21003;-72
2021/01/08 09:43:15;;;;;;;12.70;8.77;;;4.00;97.00;;;;;;5095698;28;20511;-72
2021/01/08 09:45:42;;;;;;;14.50;10.10;;;4.00;97.10;;;;;;5095480;28;20924;-72
2021/01/08 09:48:20;;;;;;;17.00;10.97;;;4.00;96.90;;;;;;5095568;28;20535;-72
2021/01/08 09:50:46;;;;;;;14.40;9.30;;;4.10;96.90;;;;;;5095246;28;20467;-72
2021/01/08 09:53:13;;;;;;;15.00;10.33;;;4.10;97.00;;;;;;5095217;28;20444;-72
2021/01/08 09:55:39;;;;;;;14.30;10.53;;;4.20;97.10;;;;;;5095441;28;20444;-72
2021/01/08 09:58:05;;;;;;;14.53;10.07;;;4.20;97.00;;;;;;5095381;28;20427;-72
2021/01/08 10:00:35;;;;;;;14.13;10.03;;;4.20;96.90;;;;;;5095822;28;20670;-73
2021/01/08 10:03:02;;;;;;;16.33;10.87;;;4.30;96.90;;;;;;5095080;28;20972;-73
2021/01/08 10:05:30;;;;;;;17.30;11.30;;;4.30;96.90;;;;;;5094956;28;20512;-76
2021/01/08 10:07:57;;;;;;;16.80;11.70;;;4.30;96.80;;;;;;5095186;28;20468;-74
2021/01/08 10:10:41;;;;;;;15.90;10.43;;;4.30;96.70;;;;;;5095784;28;20474;-74
2021/01/08 10:13:18;;;;;;;17.73;11.90;;;4.30;96.80;;;;;;5095230;28;20436;-74
2021/01/08 10:15:47;;;;;;;17.13;13.00;;;4.40;96.80;;;;;;5094804;28;20923;-74
2021/01/08 10:18:15;;;;;;;18.67;12.90;;;4.50;96.80;;;;;;5094390;28;20416;-74
2021/01/08 10:20:44;;;;;;;17.57;13.23;;;4.50;96.50;;;;;;5094927;28;20471;-74
2021/01/08 10:23:15;;;;;;;19.03;12.63;;;4.50;96.40;;;;;;5095067;28;20440;-73
2021/01/08 10:25:41;;;;;;;18.70;13.17;;;4.60;96.20;;;;;;5094855;28;20451;-72
2021/01/08 10:28:19;;;;;;;20.20;13.03;;;4.50;95.80;;;;;;5094591;28;20478;-72
2021/01/08 10:30:48;;;;;;;17.80;13.07;;;4.50;95.80;;;;;;5094879;28;20482;-72
2021/01/08 10:33:15;;;;;;;17.10;12.70;;;4.50;96.00;;;;;;5094720;28;20458;-72
2021/01/08 10:35:48;;;;;;;17.30;12.63;;;4.60;96.00;;;;;;5094653;28;20447;-72
2021/01/08 10:38:15;;;;;;;15.13;11.20;;;4.60;95.90;;;;;;5094739;28;20424;-73
2021/01/08 10:40:41;;;;;;;18.67;11.90;;;4.70;95.80;;;;;;5094547;28;20521;-73
2021/01/08 10:43:08;;;;;;;14.10;11.13;;;4.80;95.80;;;;;;5094629;28;20435;-73
2021/01/08 10:45:35;;;;;;;17.20;12.40;;;4.90;95.50;;;;;;5094552;28;20447;-73
2021/01/08 10:48:02;;;;;;;15.23;11.97;;;5.00;95.40;;;;;;5094439;28;20483;-73
2021/01/08 10:50:29;;;;;;;14.00;11.10;;;5.10;95.40;;;;;;5094470;28;20475;-73
2021/01/08 10:52:55;;;;;;;15.53;10.90;;;5.10;94.90;;;;;;5094007;28;20439;-73
2021/01/08 10:55:21;;;;;;;17.13;12.20;;;5.10;94.80;;;;;;5094336;28;20444;-73
2021/01/08 10:57:47;;;;;;;18.13;12.93;;;5.10;94.80;;;;;;5094050;28;20796;-73
2021/01/08 11:00:19;;;;;;;14.97;11.83;;;5.10;95.00;;;;;;5094209;28;20460;-73
2021/01/08 11:02:45;;;;;;;16.33;12.30;;;5.10;94.90;;;;;;5094304;28;20526;-73
2021/01/08 11:05:13;;;;;;;16.83;12.17;;;5.10;94.60;;;;;;5093803;28;20460;-73
2021/01/08 11:07:40;;;;;;;15.97;12.67;;;5.10;94.60;;;;;;5093705;28;20847;-73
2021/01/08 11:10:07;;;;;;;17.00;13.40;;;5.10;94.60;;;;;;5093711;28;20474;-73
2021/01/08 11:12:34;;;;;;;16.87;14.37;;;5.00;94.50;;;;;;5093760;28;20454;-73
2021/01/08 11:15:00;;;;;;;18.63;14.30;;;5.10;94.90;;;;;;5094058;28;20448;-73
2021/01/08 11:17:27;;;;;;;15.83;12.60;;;5.00;94.80;;;;;;5094021;28;20416;-72
2021/01/08 11:19:53;;;;;;;16.93;13.13;;;5.00;94.70;;;;;;5093508;28;20974;-73
2021/01/08 11:22:20;;;;;;;16.10;13.50;;;5.00;94.60;;;;;;5093830;28;20443;-72
2021/01/08 11:24:46;;;;;;;17.00;13.67;;;5.00;94.70;;;;;;5093894;28;20444;-73
2021/01/08 11:27:12;;;;;;;16.93;13.60;;;5.00;94.80;;;;;;5093880;28;20460;-73
2021/01/08 11:29:40;;;;;;;15.37;12.47;;;5.00;94.90;;;;;;5093775;28;20463;-73
2021/01/08 11:32:07;;;;;;;17.50;13.83;;;5.00;94.90;;;;;;5093951;28;20479;-73
2021/01/08 11:34:34;;;;;;;17.37;15.07;;;5.10;95.00;;;;;;5093866;28;20500;-72
2021/01/08 11:37:00;;;;;;;16.47;12.90;;;5.20;94.90;;;;;;5093471;28;20443;-72
2021/01/08 11:39:27;;;;;;;15.50;13.33;;;5.20;94.50;;;;;;5093611;28;20521;-72
2021/01/08 11:41:55;;;;;;;17.30;14.20;;;5.20;94.30;;;;;;5093725;28;20451;-72
2021/01/08 11:44:22;;;;;;;17.43;13.17;;;5.30;94.60;;;;;;5093735;28;20424;-73
2021/01/08 11:46:49;;;;;;;16.70;13.37;;;5.40;94.50;;;;;;5093571;28;20455;-73
2021/01/08 11:49:16;;;;;;;17.90;14.60;;;5.40;94.40;;;;;;5093550;28;20468;-73
2021/01/08 11:51:42;;;;;;;14.13;12.50;;;5.40;94.40;;;;;;5093523;28;20444;-73
2021/01/08 11:54:08;;;;;;;13.40;11.73;;;5.40;94.20;;;;;;5093255;28;20999;-73
2021/01/08 11:56:36;;;;;;;14.60;12.40;;;5.40;94.00;;;;;;5093212;28;20534;-73
2021/01/08 11:59:03;;;;;;;13.87;11.70;;;5.40;94.10;;;;;;5093207;28;20452;-73
2021/01/08 12:01:30;;;;;;;15.90;12.30;;;5.30;94.10;;;;;;5093481;28;20522;-73
2021/01/08 12:03:57;;;;;;;16.93;13.90;;;5.30;94.20;;;;;;5093154;28;20455;-72
2021/01/08 12:06:28;;;;;;;16.03;12.90;;;5.20;94.30;;;;;;5093154;28;20483;-72
2021/01/08 12:08:55;;;;;;;16.77;12.40;;;5.10;94.50;;;;;;5092995;28;20476;-72
2021/01/08 12:11:22;;;;;;;17.27;13.53;;;5.10;95.00;;;;;;5093368;28;20448;-72
2021/01/08 12:13:49;;;;;;;17.60;12.20;;;5.10;94.90;;;;;;5093390;28;20435;-72
2021/01/08 12:16:22;;;;;;;13.90;11.43;;;5.10;95.10;;;;;;5093380;28;20432;-72
2021/01/08 12:18:49;;;;;;;16.40;13.00;;;5.10;95.00;;;;;;5093368;28;20435;-72
2021/01/08 12:21:15;;;;;;;14.73;12.23;;;5.10;95.10;;;;;;5092920;28;20463;-72
2021/01/08 12:23:41;;;;;;;13.40;11.00;;;5.20;95.10;;;;;;5093086;28;20782;-72
2021/01/08 12:26:13;;;;;;;15.17;12.37;;;5.20;94.90;;;;;;5093112;28;20438;-73
2021/01/08 12:28:39;;;;;;;14.93;12.03;;;5.20;94.70;;;;;;5093016;28;20467;-73
2021/01/08 12:31:06;;;;;;;16.30;13.23;;;5.20;94.80;;;;;;5092773;28;20977;-73
2021/01/08 12:33:32;;;;;;;15.63;12.13;;;5.10;94.50;;;;;;5092854;28;20435;-73
2021/01/08 12:35:59;;;;;;;13.13;10.83;;;5.00;94.70;;;;;;5093223;28;20478;-72
2021/01/08 12:38:25;;;;;;;16.57;12.43;;;5.00;94.90;;;;;;5092774;28;20458;-73
2021/01/08 12:40:51;;;;;;;16.47;12.00;;;4.90;94.90;;;;;;5094257;28;20467;-72
2021/01/08 12:43:18;;;;;;;13.03;10.93;;;4.90;95.00;;;;;;5096937;28;20801;-72
2021/01/08 12:45:44;;;;;;;13.47;11.40;;;4.80;95.10;;;;;;5096866;28;20806;-73